Time;durP1;ratioP1;P1;durP2;ratioP2;P2;SDS_P1;SDS_P2;PMS_P1;PMS_P2;Temp;Humidity;BMP_temperature;BMP_pressure;BME280_temperature;BME280_humidity;BME280_pressure;Samples;Min_cycle;Max_cycle;Signal;HPM_P1;HPM_P2
2023/04/27 00:02:06;;;;;;;10.00;5.80;;;;;;;0.30;80.09;101868.00;5035844;28;20022;-82
2023/04/27 00:07:07;;;;;;;13.18;6.65;;;;;;;0.30;80.98;101867.16;6105364;22;20012;-81
2023/04/27 00:09:33;;;;;;;11.40;6.03;;;;;;;0.28;81.26;101869.91;5071052;28;20048;-82
2023/04/27 00:11:58;;;;;;;12.73;6.13;;;;;;;0.32;81.08;101869.69;5073293;28;20036;-82
2023/04/27 00:14:27;;;;;;;15.63;7.20;;;;;;;0.42;81.35;101879.56;5074046;28;20024;-82
2023/04/27 00:16:58;;;;;;;11.50;6.20;;;;;;;0.36;81.79;101873.84;5070678;28;20082;-83
2023/04/27 00:19:23;;;;;;;9.18;5.60;;;;;;;0.29;81.33;101881.38;5073435;28;20082;-82
2023/04/27 00:24:30;;;;;;;12.52;5.70;;;;;;;0.08;81.07;101883.66;5485754;22;20311;-81
2023/04/27 00:26:56;;;;;;;11.90;6.00;;;;;;;0.05;82.10;101882.06;5046763;28;20909;-80
2023/04/27 00:29:21;;;;;;;8.68;4.68;;;;;;;0.04;81.97;101884.81;5054064;28;20036;-83
2023/04/27 00:31:47;;;;;;;9.97;5.80;;;;;;;-0.05;81.44;101881.81;5049248;28;20043;-81
2023/04/27 00:34:12;;;;;;;13.23;6.27;;;;;;;-0.13;81.63;101891.22;5053373;28;20059;-82
2023/04/27 00:36:38;;;;;;;9.93;4.90;;;;;;;-0.18;81.53;101886.22;5051678;28;20021;-82
2023/04/27 00:39:05;;;;;;;8.33;5.00;;;;;;;-0.25;82.30;101880.50;5042606;28;20029;-82
2023/04/27 00:41:31;;;;;;;11.30;6.55;;;;;;;-0.30;82.06;101882.59;5051713;28;20090;-83
2023/04/27 00:43:57;;;;;;;11.00;4.93;;;;;;;-0.35;82.45;101885.53;5053861;28;20029;-83
2023/04/27 00:46:22;;;;;;;8.98;4.88;;;;;;;-0.38;82.42;101884.91;5052033;28;20546;-81
2023/04/27 00:48:47;;;;;;;10.37;6.33;;;;;;;-0.34;83.12;101889.00;5033047;28;20425;-82
2023/04/27 00:51:13;;;;;;;10.47;6.20;;;;;;;-0.19;83.64;101898.63;5051579;28;20031;-82
2023/04/27 00:53:38;;;;;;;13.67;7.30;;;;;;;-0.19;84.07;101888.03;5018128;28;20060;-81
2023/04/27 00:56:04;;;;;;;10.60;5.87;;;;;;;-0.23;83.86;101894.47;5036288;28;20028;-82
2023/04/27 00:58:30;;;;;;;;;;;;;;;-0.33;83.86;101886.28;5052131;28;20021;-81
2023/04/27 01:00:55;;;;;;;10.23;5.07;;;;;;;-0.40;83.49;101890.28;5046767;28;19963;-82
2023/04/27 01:03:21;;;;;;;12.67;6.90;;;;;;;-0.47;83.25;101896.91;5025960;28;20028;-82
2023/04/27 01:05:46;;;;;;;12.57;5.35;;;;;;;-0.55;83.80;101900.06;5053843;28;20291;-83
2023/04/27 01:08:12;;;;;;;8.30;4.50;;;;;;;-0.57;83.70;101898.44;5042153;28;20381;-82
2023/04/27 01:10:37;;;;;;;11.93;5.97;;;;;;;-0.61;84.21;101898.63;5044415;28;20031;-82
2023/04/27 01:13:02;;;;;;;16.00;7.67;;;;;;;-0.53;84.92;101892.00;5051197;28;20025;-82
2023/04/27 01:15:28;;;;;;;14.63;8.17;;;;;;;-0.59;84.91;101890.63;5053205;28;20468;-81
2023/04/27 01:18:03;;;;;;;16.08;7.30;;;;;;;-0.63;85.02;101899.69;5052753;28;20306;-82
2023/04/27 01:20:29;;;;;;;13.93;5.88;;;;;;;-0.67;84.60;101906.09;5050241;28;20061;-82
2023/04/27 01:22:57;;;;;;;13.43;6.40;;;;;;;-0.75;84.21;101905.75;5050373;28;20468;-82
2023/04/27 01:25:23;;;;;;;10.75;5.55;;;;;;;-0.84;84.59;101908.03;5051273;28;20086;-81
2023/04/27 01:27:49;;;;;;;10.65;5.97;;;;;;;-0.88;84.37;101910.97;5040340;28;20535;-82
2023/04/27 01:30:17;;;;;;;12.43;5.80;;;;;;;-0.94;84.42;101905.09;5049775;28;20029;-81
2023/04/27 01:32:42;;;;;;;11.18;5.65;;;;;;;-1.00;84.66;101907.28;5043289;28;20051;-82
2023/04/27 01:35:08;;;;;;;15.57;9.03;;;;;;;-1.05;85.10;101899.66;5050382;28;21707;-82
2023/04/27 01:37:34;;;;;;;19.27;9.25;;;;;;;-1.08;85.05;101905.13;5051018;28;20025;-82
2023/04/27 01:39:59;;;;;;;13.13;7.95;;;;;;;-1.12;85.90;101899.19;5046549;28;20091;-83
2023/04/27 01:42:25;;;;;;;15.40;7.30;;;;;;;-1.16;86.11;101895.00;5033535;28;20396;-82
2023/04/27 01:44:50;;;;;;;12.30;6.77;;;;;;;-1.16;86.52;101897.66;5048434;28;20031;-82
2023/04/27 01:47:16;;;;;;;15.60;7.20;;;;;;;-1.20;85.88;101901.44;5049476;28;20473;-81
2023/04/27 01:49:41;;;;;;;11.73;5.75;;;;;;;-1.23;86.38;101909.53;5050715;28;20029;-81
2023/04/27 01:52:07;;;;;;;11.95;6.65;;;;;;;-1.25;86.28;101900.88;5050743;28;20025;-80
2023/04/27 01:54:32;;;;;;;9.30;5.63;;;;;;;-1.25;86.51;101896.44;5048630;28;20036;-82
2023/04/27 01:56:57;;;;;;;10.57;5.87;;;;;;;-1.29;86.11;101902.00;5042874;28;20551;-81
2023/04/27 01:59:23;;;;;;;16.73;8.07;;;;;;;-1.33;86.48;101904.00;5038318;28;20500;-81
2023/04/27 02:01:48;;;;;;;17.17;8.23;;;;;;;-1.34;86.49;101901.41;5051749;28;20599;-81
2023/04/27 02:04:14;;;;;;;13.47;6.77;;;;;;;-1.42;86.30;101902.75;5050450;28;20048;-81
2023/04/27 02:06:40;;;;;;;11.70;5.57;;;;;;;-1.45;86.55;101899.44;5049220;28;20017;-81
2023/04/27 02:09:05;;;;;;;;;;;;;;;-1.49;86.40;101906.69;5051764;28;20044;-81
2023/04/27 02:11:30;;;;;;;15.63;7.65;;;;;;;-1.54;86.41;101898.19;5051273;28;19920;-81
2023/04/27 02:13:56;;;;;;;11.73;5.63;;;;;;;-1.55;86.81;101901.78;5053043;28;20039;-81
2023/04/27 02:16:21;;;;;;;10.93;5.57;;;;;;;-1.57;86.27;101903.66;5052872;28;20029;-81
2023/04/27 02:18:47;;;;;;;11.60;5.03;;;;;;;-1.60;86.33;101911.78;5051333;28;20036;-81
2023/04/27 02:21:13;;;;;;;;;;;;;;;-1.61;86.62;101907.44;5059295;28;20021;-81
2023/04/27 02:23:38;;;;;;;16.93;8.03;;;;;;;-1.63;86.69;101904.03;5073227;28;19908;-81
2023/04/27 02:26:03;;;;;;;18.20;6.80;;;;;;;-1.64;87.01;101895.25;5060887;28;20115;-81
2023/04/27 02:28:29;;;;;;;13.83;7.20;;;;;;;-1.63;86.84;101906.66;5053292;28;20384;-80
2023/04/27 02:30:55;;;;;;;10.55;6.20;;;;;;;-1.68;87.02;101897.22;5051036;28;20521;-81
2023/04/27 02:33:21;;;;;;;14.82;7.47;;;;;;;-1.73;86.83;101899.28;5045314;28;20337;-81
2023/04/27 02:35:46;;;;;;;23.67;9.68;;;;;;;-1.77;87.56;101897.78;5045874;28;20387;-82
2023/04/27 02:38:12;;;;;;;13.60;8.10;;;;;;;-1.77;87.09;101892.50;5048500;28;20036;-81
2023/04/27 02:40:37;;;;;;;14.52;6.45;;;;;;;-1.83;87.39;101892.84;5050306;28;20029;-81
2023/04/27 02:43:03;;;;;;;17.97;8.10;;;;;;;-1.87;87.20;101886.06;5049630;28;20058;-81
2023/04/27 02:45:28;;;;;;;12.83;5.90;;;;;;;-1.90;87.46;101884.44;5051021;28;20022;-81
2023/04/27 02:47:54;;;;;;;12.73;6.53;;;;;;;-1.90;87.10;101880.94;5046246;28;20021;-81
2023/04/27 02:50:19;;;;;;;16.77;7.77;;;;;;;-1.90;87.57;101883.59;5049858;28;20374;-81
2023/04/27 02:52:44;;;;;;;12.50;7.27;;;;;;;-1.94;87.57;101879.44;5051280;28;20036;-81
2023/04/27 02:55:10;;;;;;;14.77;7.00;;;;;;;-1.96;87.65;101881.31;5052597;28;20379;-82
2023/04/27 02:57:35;;;;;;;13.30;6.50;;;;;;;-1.98;87.44;101884.91;5057506;28;20013;-81
2023/04/27 03:13:14;;;;;;;18.33;10.52;;;;;;;-2.16;87.88;101878.06;5647990;22;20401;-82
2023/04/27 03:15:40;;;;;;;13.82;6.63;;;;;;;-2.21;87.65;101878.31;5019013;28;20030;-82
2023/04/27 03:18:05;;;;;;;13.37;6.83;;;;;;;-2.24;87.81;101872.34;5031885;28;20083;-80
2023/04/27 03:20:30;;;;;;;12.93;5.90;;;;;;;-2.28;87.81;101884.88;5030676;28;20361;-81
2023/04/27 03:22:58;;;;;;;14.57;6.83;;;;;;;-2.31;87.36;101893.81;5029932;28;20104;-80
2023/04/27 04:22:59;;;;;;;28.25;14.85;;;;;;;-2.20;88.85;101935.38;5719405;22;20049;-79
2023/04/27 04:25:25;;;;;;;19.50;14.60;;;;;;;-2.28;88.75;101927.91;5051195;28;20033;-79
2023/04/27 04:27:54;;;;;;;19.05;12.50;;;;;;;-2.34;88.58;101936.19;5047848;28;20292;-80
2023/04/27 04:30:22;;;;;;;21.83;16.02;;;;;;;-2.42;88.72;101922.56;4994726;28;20041;-80
2023/04/27 04:42:53;;;;;;;28.83;16.25;;;;;;;-2.21;88.49;101931.06;5035110;28;20106;-80
2023/04/27 04:45:18;;;;;;;29.90;21.08;;;;;;;-2.12;88.74;101924.44;5048898;28;20029;-80
2023/04/27 05:13:39;;;;;;;26.52;22.83;;;;;;;0.88;85.34;101946.28;5052456;28;20052;-78
2023/04/27 05:45:17;;;;;;;14.82;9.35;;;;;;;2.71;75.96;101949.81;6041592;22;20057;-78
2023/04/27 05:47:45;;;;;;;13.15;8.68;;;;;;;3.00;74.60;101948.53;5034260;28;20415;-82
2023/04/27 05:50:10;;;;;;;13.20;7.57;;;;;;;3.51;72.95;101949.81;5052172;28;20105;-79
2023/04/27 05:52:36;;;;;;;19.30;9.18;;;;;;;4.09;70.28;101943.38;5054257;28;20044;-83
2023/04/27 05:55:02;;;;;;;15.10;7.88;;;;;;;4.58;68.37;101941.09;5053940;28;20029;-83
2023/04/27 05:57:29;;;;;;;;;;;;;;;4.67;67.30;101945.63;5047046;28;20078;-86
2023/04/27 06:29:28;;;;;;;6.70;4.65;;;;;;;13.44;41.95;101966.59;5857395;23;20051;-80
2023/04/27 06:31:55;;;;;;;10.05;5.20;;;;;;;13.42;41.77;101957.00;4973158;28;20206;-82
2023/04/27 07:36:04;;;;;;;5.67;2.53;;;;;;;16.71;31.38;101956.25;5016394;23;20130;-85
2023/04/27 07:38:32;;;;;;;4.78;2.70;;;;;;;16.79;31.09;101961.44;4955121;28;20043;-83
2023/04/27 07:41:00;;;;;;;7.03;2.70;;;;;;;16.89;30.57;101957.47;4954397;29;20371;-84
2023/04/27 08:09:57;;;;;;;5.85;2.42;;;;;;;17.00;29.26;101970.44;5065656;23;20059;-80
2023/04/27 08:39:36;;;;;;;3.45;1.80;;;;;;;20.01;24.90;101970.09;4951331;28;20422;-79
2023/04/27 08:49:00;;;;;;;4.88;2.30;;;;;;;18.18;25.73;101964.88;4961288;28;20050;-80
2023/04/27 08:51:27;;;;;;;1.98;1.85;;;;;;;18.99;25.31;101958.75;4967325;28;20411;-79
2023/04/27 08:53:55;;;;;;;3.97;1.90;;;;;;;18.25;25.47;101959.41;4949022;28;20050;-81
2023/04/27 08:56:24;;;;;;;2.63;1.83;;;;;;;18.33;25.42;101965.41;4966142;28;20035;-79
2023/04/27 08:58:50;;;;;;;2.33;1.80;;;;;;;17.82;25.75;101959.00;4943069;28;20121;-79
2023/04/27 09:01:16;;;;;;;3.33;2.30;;;;;;;17.88;25.56;101957.31;4964684;28;20023;-81
2023/04/27 09:03:41;;;;;;;2.90;2.08;;;;;;;17.56;25.12;101958.09;4964756;28;20026;-79
2023/04/27 09:06:07;;;;;;;3.13;1.92;;;;;;;17.72;25.56;101948.59;4946198;28;20450;-79
2023/04/27 09:08:48;;;;;;;4.78;2.05;;;;;;;17.45;25.67;101952.50;4966478;28;20219;-79
2023/04/27 09:11:15;;;;;;;4.45;2.13;;;;;;;18.41;24.70;101953.41;4957935;28;20043;-80
2023/04/27 09:13:44;;;;;;;2.22;1.83;;;;;;;18.78;24.30;101953.47;4944269;28;20075;-80
2023/04/27 09:16:13;;;;;;;4.93;2.40;;;;;;;18.93;24.08;101955.84;4965986;28;20123;-80
2023/04/27 09:18:41;;;;;;;3.53;2.08;;;;;;;18.84;23.43;101948.16;4963420;28;20473;-80
2023/04/27 09:21:07;;;;;;;2.47;2.15;;;;;;;18.80;23.82;101953.25;4963576;28;20093;-80
2023/04/27 09:23:34;;;;;;;5.78;1.92;;;;;;;19.07;22.82;101953.84;4963132;28;20030;-80
2023/04/27 09:26:02;;;;;;;2.38;2.05;;;;;;;18.37;22.45;101948.59;4943149;28;20478;-80
2023/04/27 09:28:33;;;;;;;2.20;1.80;;;;;;;19.03;22.99;101951.78;4964813;28;20135;-80
2023/04/27 09:30:59;;;;;;;3.38;2.30;;;;;;;17.58;24.05;101950.53;4941494;28;20113;-80
2023/04/27 09:33:30;;;;;;;3.15;2.20;;;;;;;18.05;23.80;101954.09;4947348;28;20106;-80
2023/04/27 09:36:02;;;;;;;3.92;2.28;;;;;;;18.01;24.83;101942.78;4965839;28;20058;-80
2023/04/27 09:38:28;;;;;;;2.33;2.13;;;;;;;18.03;23.37;101946.97;4961561;28;20121;-80
2023/04/27 09:40:55;;;;;;;2.42;2.22;;;;;;;18.76;21.57;101943.84;4962201;28;20082;-80
2023/04/27 09:43:22;;;;;;;3.70;2.63;;;;;;;18.82;22.06;101947.56;4963292;28;20039;-80
2023/04/27 09:45:49;;;;;;;3.60;2.08;;;;;;;20.73;20.63;101942.59;4964587;28;20050;-80
2023/04/27 09:48:16;;;;;;;2.75;2.10;;;;;;;20.95;19.87;101933.81;4927482;28;20034;-79
2023/04/27 09:50:46;;;;;;;2.78;2.20;;;;;;;20.74;20.13;101938.78;4947135;28;20093;-79
2023/04/27 09:53:17;;;;;;;6.57;2.50;;;;;;;20.05;21.72;101935.75;4965487;28;20050;-79
2023/04/27 09:55:57;;;;;;;2.63;2.40;;;;;;;19.94;22.11;101934.69;4927885;28;20039;-80
2023/04/27 09:58:45;;;;;;;3.10;2.28;;;;;;;20.38;20.92;101929.75;4946335;28;20042;-80
2023/04/27 10:01:32;;;;;;;5.00;2.50;;;;;;;19.69;21.98;101921.97;4950170;28;20039;-80
2023/04/27 10:04:28;;;;;;;3.67;2.90;;;;;;;19.29;21.95;101923.34;4948185;28;20096;-79
2023/04/27 10:07:05;;;;;;;4.13;2.55;;;;;;;19.48;22.28;101915.94;5177934;23;20050;-78
2023/04/27 10:09:37;;;;;;;3.33;2.53;;;;;;;20.23;21.87;101921.19;4969206;28;20078;-79
2023/04/27 10:12:22;;;;;;;4.15;2.95;;;;;;;19.38;22.53;101921.97;4962579;28;20053;-79
2023/04/27 10:15:16;;;;;;;5.68;2.95;;;;;;;19.07;22.51;101910.16;4963379;28;20628;-78
2023/04/27 10:17:57;;;;;;;5.00;3.00;;;;;;;18.24;23.71;101901.31;4961938;28;20506;-79
2023/04/27 10:20:31;;;;;;;4.43;3.15;;;;;;;17.21;24.80;101914.91;4966288;28;20488;-79
2023/04/27 10:22:58;;;;;;;3.85;2.97;;;;;;;16.90;23.92;101913.72;4929142;28;20023;-79
2023/04/27 10:25:40;;;;;;;5.88;3.25;;;;;;;17.23;24.09;101904.63;4962718;28;20023;-78
2023/04/27 10:28:08;;;;;;;5.22;3.45;;;;;;;17.06;24.28;101907.03;4968403;28;20043;-78
2023/04/27 10:30:36;;;;;;;3.95;3.30;;;;;;;17.05;23.33;101907.22;4944793;28;20035;-78
2023/04/27 10:33:06;;;;;;;3.88;3.20;;;;;;;17.05;23.91;101902.63;4965555;28;20042;-78
2023/04/27 10:35:32;;;;;;;5.15;3.47;;;;;;;17.09;25.05;101900.31;4963280;28;20058;-78
2023/04/27 10:38:07;;;;;;;4.20;3.30;;;;;;;18.16;24.90;101898.88;4946570;28;20557;-78
2023/04/27 10:43:49;;;;;;;6.78;3.47;;;;;;;18.64;24.36;101894.66;4949485;28;20045;-79
2023/04/27 10:49:37;;;;;;;4.03;3.25;;;;;;;20.33;21.62;101891.34;4962761;28;20065;-78
2023/04/27 10:52:52;;;;;;;4.15;3.17;;;;;;;20.38;20.83;101901.59;4933470;28;20035;-78
2023/04/27 10:55:28;;;;;;;4.57;3.42;;;;;;;20.18;22.03;101896.44;4960117;28;20084;-79
2023/04/27 10:57:54;;;;;;;3.50;3.13;;;;;;;20.55;21.24;101896.22;4942516;28;20038;-80
2023/04/27 11:00:24;;;;;;;6.32;3.35;;;;;;;20.90;21.03;101903.56;4929303;28;20395;-79
2023/04/27 11:02:49;;;;;;;4.82;3.33;;;;;;;19.44;22.92;101903.00;4964617;28;20026;-79
2023/04/27 11:05:22;;;;;;;3.90;3.25;;;;;;;19.85;21.34;101891.25;4946981;28;20038;-79
2023/04/27 11:07:47;;;;;;;3.67;3.28;;;;;;;19.21;22.14;101883.53;4947859;28;20035;-78
2023/04/27 11:10:19;;;;;;;3.67;3.00;;;;;;;19.67;22.25;101880.38;5045892;23;20085;-78
2023/04/27 11:12:45;;;;;;;4.63;3.63;;;;;;;20.55;21.19;101902.53;4947029;28;20043;-78
2023/04/27 11:15:16;;;;;;;8.75;5.72;;;;;;;20.87;21.83;101882.16;4942304;28;20039;-79
2023/04/27 11:17:43;;;;;;;4.65;3.50;;;;;;;20.26;20.85;101876.97;4964082;28;20026;-79
2023/04/27 11:20:10;;;;;;;7.35;6.07;;;;;;;20.31;21.24;101890.72;4962195;28;20238;-79
2023/04/27 11:22:45;;;;;;;9.90;6.25;;;;;;;21.11;21.62;101876.63;4958755;28;20122;-79
2023/04/27 11:25:11;;;;;;;4.75;4.20;;;;;;;20.32;21.67;101880.66;4959120;28;20577;-79
2023/04/27 11:27:38;;;;;;;3.92;3.50;;;;;;;20.22;21.14;101870.28;4945057;28;20127;-79
2023/04/27 11:30:04;;;;;;;6.45;3.85;;;;;;;20.21;20.91;101879.56;4964161;28;20037;-79
2023/04/27 11:32:30;;;;;;;5.45;3.65;;;;;;;19.57;21.96;101875.50;4958723;28;20081;-79
2023/04/27 11:34:55;;;;;;;4.78;3.50;;;;;;;;;;4944496;28;20026;-79
2023/04/27 11:37:25;;;;;;;6.90;4.00;;;;;;;20.58;21.30;101866.47;4943955;28;20538;-79
2023/04/27 11:39:52;;;;;;;5.03;4.38;;;;;;;21.41;20.73;101870.06;4967477;28;20027;-78
2023/04/27 11:42:21;;;;;;;6.45;3.70;;;;;;;21.63;19.60;101862.00;4971550;28;20125;-79
2023/04/27 11:45:04;;;;;;;6.47;4.03;;;;;;;21.65;19.11;101860.69;4975983;28;20111;-79
2023/04/27 11:47:34;;;;;;;20.33;4.57;;;;;;;20.97;20.13;101860.50;4956069;28;20043;-79
2023/04/27 11:56:09;;;;;;;4.85;4.38;;;;;;;22.24;19.90;101853.13;5670259;23;20291;-79
2023/04/27 11:58:43;;;;;;;4.38;3.92;;;;;;;22.35;19.59;101848.63;4940603;29;20039;-79
2023/04/27 12:06:52;;;;;;;3.80;3.50;;;;;;;22.88;19.14;101851.81;5567312;23;20042;-77
2023/04/27 12:09:23;;;;;;;5.80;3.90;;;;;;;20.75;20.16;101843.84;4937224;29;20126;-77
2023/04/27 12:11:55;;;;;;;6.25;3.60;;;;;;;20.07;20.65;101836.06;4940891;28;20438;-77
2023/04/27 12:14:21;;;;;;;5.80;3.75;;;;;;;19.98;20.57;101843.78;4974768;28;20042;-78
2023/04/27 12:16:48;;;;;;;5.00;3.63;;;;;;;20.39;19.72;101835.69;4974086;28;20073;-78
2023/04/27 12:19:15;;;;;;;4.15;3.38;;;;;;;20.60;20.54;101841.63;4974457;28;20034;-78
2023/04/27 12:21:41;;;;;;;4.25;3.20;;;;;;;19.84;21.01;101837.66;4961349;28;20035;-77
2023/04/27 12:24:07;;;;;;;3.72;3.38;;;;;;;20.11;20.49;101837.25;4967342;28;20039;-78
2023/04/27 12:26:34;;;;;;;4.93;3.53;;;;;;;20.41;20.68;101829.97;4969028;28;20134;-80
2023/04/27 12:29:03;;;;;;;5.38;3.63;;;;;;;21.00;19.83;101827.13;5020744;23;20060;-78
2023/04/27 12:31:33;;;;;;;4.53;3.40;;;;;;;21.84;19.33;101832.22;4916589;29;20135;-78
2023/04/27 12:34:04;;;;;;;4.22;3.63;;;;;;;20.85;19.73;101829.56;4916653;29;20036;-79
2023/04/27 12:36:31;;;;;;;4.75;3.72;;;;;;;20.23;20.35;101822.75;4915563;29;20502;-78
2023/04/27 12:39:15;;;;;;;4.90;3.88;;;;;;;19.59;21.08;101816.00;4915070;29;20092;-79
2023/04/27 12:41:45;;;;;;;5.53;3.63;;;;;;;20.20;21.03;101817.75;4915515;29;20047;-78
2023/04/27 12:44:11;;;;;;;5.53;3.92;;;;;;;20.41;20.52;101824.50;4916442;29;20575;-77
2023/04/27 12:49:59;;;;;;;4.10;3.60;;;;;;;19.96;21.21;101817.75;4957859;28;20054;-79
2023/04/27 12:55:53;;;;;;;4.88;3.45;;;;;;;19.32;22.13;101821.03;5191163;23;20051;-81
2023/04/27 13:24:18;;;;;;;3.73;3.03;;;;;;;16.89;25.40;101777.97;5186007;23;20306;-81
2023/04/27 13:54:11;;;;;;;5.63;3.40;;;;;;;16.73;26.43;101760.25;4915446;29;20189;-81
2023/04/27 14:00:20;;;;;;;4.15;3.28;;;;;;;16.67;26.26;101749.22;4911337;29;20117;-79
2023/04/27 14:03:15;;;;;;;3.78;3.28;;;;;;;16.78;26.15;101749.56;4907335;29;20377;-78
2023/04/27 14:08:31;;;;;;;5.10;3.78;;;;;;;17.30;25.21;101754.94;5031004;23;20477;-77
2023/04/27 14:11:12;;;;;;;5.00;3.40;;;;;;;17.04;25.29;101751.34;4949875;29;21103;-78
2023/04/27 14:13:41;;;;;;;4.45;3.13;;;;;;;16.83;27.36;101734.25;4929807;29;20178;-77
2023/04/27 14:16:12;;;;;;;3.88;3.30;;;;;;;16.38;25.75;101739.69;4938994;28;20039;-78
2023/04/27 14:19:14;;;;;;;5.85;3.40;;;;;;;15.70;25.92;101743.53;4952022;28;20046;-78
2023/04/27 14:21:46;;;;;;;4.18;3.33;;;;;;;15.38;26.60;101735.16;4900620;29;20327;-78
2023/04/27 14:24:12;;;;;;;3.97;3.30;;;;;;;14.78;27.31;101733.19;4939724;29;20036;-77
2023/04/27 14:26:43;;;;;;;10.68;4.85;;;;;;;15.80;28.82;101727.66;4942897;28;20058;-77
2023/04/27 14:29:11;;;;;;;5.22;3.42;;;;;;;16.30;29.02;101723.59;4944414;29;20071;-77
2023/04/27 14:31:37;;;;;;;4.88;3.47;;;;;;;16.08;25.85;101729.31;4942428;29;20460;-77
2023/04/27 14:34:06;;;;;;;9.27;4.15;;;;;;;15.93;26.21;101728.72;4952069;28;20474;-77
2023/04/27 14:36:32;;;;;;;5.40;3.78;;;;;;;15.85;26.34;101727.00;4950878;28;20032;-76
2023/04/27 14:49:38;;;;;;;6.00;3.90;;;;;;;15.23;28.34;101703.66;4989593;23;20063;-78
2023/04/27 14:52:14;;;;;;;6.78;3.90;;;;;;;15.23;28.46;101700.09;4941603;29;20364;-76
2023/04/27 14:54:48;;;;;;;9.57;4.95;;;;;;;14.89;28.38;101693.81;4948626;28;20194;-77
2023/04/27 14:57:17;;;;;;;5.65;3.92;;;;;;;14.62;29.21;101689.13;4948437;29;20595;-77
2023/04/27 14:59:48;;;;;;;5.45;3.90;;;;;;;14.69;28.92;101692.69;4940926;29;20019;-78
2023/04/27 15:02:14;;;;;;;6.10;4.28;;;;;;;14.48;28.74;101700.91;4950011;28;20383;-79
2023/04/27 15:04:45;;;;;;;5.63;4.20;;;;;;;14.62;28.97;101689.13;4949940;28;20061;-77
2023/04/27 15:07:52;;;;;;;5.63;3.47;;;;;;;15.12;29.17;101686.09;4950469;28;20031;-77
2023/04/27 15:10:18;;;;;;;5.47;4.13;;;;;;;15.00;27.92;101677.75;4949547;29;20504;-78
2023/04/27 15:13:05;;;;;;;5.75;3.90;;;;;;;14.79;29.04;101675.22;5038174;23;20066;-79
2023/04/27 15:15:30;;;;;;;6.57;4.22;;;;;;;14.36;29.00;101690.66;4950038;28;20450;-77
2023/04/27 15:17:57;;;;;;;7.25;4.32;;;;;;;14.36;28.91;101696.09;4951512;28;20027;-77
2023/04/27 15:20:22;;;;;;;7.18;3.90;;;;;;;14.32;28.95;101688.56;4952630;28;20039;-77
2023/04/27 15:22:48;;;;;;;5.97;4.28;;;;;;;14.48;29.24;101701.75;4951630;28;20081;-78
2023/04/27 15:25:16;;;;;;;8.75;4.30;;;;;;;14.49;29.97;101684.47;4946115;28;20039;-78
2023/04/27 15:27:41;;;;;;;7.38;4.35;;;;;;;14.42;30.17;101699.84;4943544;28;20030;-78
2023/04/27 15:30:07;;;;;;;5.80;4.18;;;;;;;14.63;29.25;101693.50;4946251;28;20023;-79
2023/04/27 15:32:36;;;;;;;4.78;4.13;;;;;;;14.70;29.11;101686.22;4942012;29;20031;-78
2023/04/27 15:35:03;;;;;;;6.45;4.40;;;;;;;14.25;28.98;101678.53;4949232;28;20031;-79
2023/04/27 15:37:28;;;;;;;6.55;4.60;;;;;;;14.28;29.17;101674.59;4951518;28;20110;-78
2023/04/27 15:39:54;;;;;;;6.35;4.50;;;;;;;14.09;28.82;101670.75;4950456;28;20025;-80
2023/04/27 15:42:20;;;;;;;5.35;4.30;;;;;;;13.86;30.55;101673.75;4950306;28;20035;-79
2023/04/27 15:44:45;;;;;;;6.18;4.43;;;;;;;14.02;29.67;101659.88;4945646;28;20023;-79
2023/04/27 15:47:15;;;;;;;7.18;4.28;;;;;;;13.90;29.62;101665.00;4951090;28;20023;-79
2023/04/27 15:49:40;;;;;;;6.55;4.38;;;;;;;13.79;30.44;101663.69;4948660;28;20391;-79
2023/04/27 15:52:07;;;;;;;7.30;4.50;;;;;;;13.82;30.69;101659.78;4949392;29;20051;-79
2023/04/27 15:54:32;;;;;;;4.70;4.30;;;;;;;13.86;29.77;101665.63;4940627;28;20031;-79
2023/04/27 15:57:00;;;;;;;7.65;4.53;;;;;;;13.80;30.92;101657.25;4936716;29;20027;-79
2023/04/27 15:59:26;;;;;;;6.35;4.28;;;;;;;14.07;30.93;101652.00;4941452;28;20043;-79
2023/04/27 16:01:51;;;;;;;6.10;4.63;;;;;;;14.06;30.51;101653.03;4944703;29;20129;-80
2023/04/27 16:04:16;;;;;;;4.57;4.15;;;;;;;13.74;30.55;101655.34;4950355;28;20019;-79
2023/04/27 16:06:42;;;;;;;6.93;4.30;;;;;;;13.89;30.51;101657.09;4948876;28;20148;-80
2023/04/27 16:09:08;;;;;;;9.07;4.40;;;;;;;13.71;30.54;101647.63;4950737;28;20126;-79
2023/04/27 16:11:34;;;;;;;6.20;4.53;;;;;;;13.80;30.62;101643.72;4948966;28;20039;-78
2023/04/27 16:13:59;;;;;;;4.72;4.10;;;;;;;13.99;30.54;101635.09;4947165;28;20055;-79
2023/04/27 16:16:41;;;;;;;7.35;4.43;;;;;;;13.96;30.48;101630.91;5549225;23;20065;-79
2023/04/27 16:19:35;;;;;;;6.65;4.38;;;;;;;13.98;30.82;101634.25;4948365;28;20545;-78
2023/04/27 16:22:56;;;;;;;6.18;4.70;;;;;;;13.71;31.30;101631.41;4949100;28;20055;-79
2023/04/27 16:26:02;;;;;;;4.82;4.30;;;;;;;13.49;31.10;101630.63;4942517;28;20078;-79
2023/04/27 16:28:45;;;;;;;8.85;5.00;;;;;;;13.33;31.60;101623.59;4944269;28;20038;-80
2023/04/27 16:31:11;;;;;;;6.25;4.18;;;;;;;13.13;32.09;101624.28;4948229;29;20043;-79
2023/04/27 16:33:37;;;;;;;5.75;4.38;;;;;;;13.06;32.21;101617.97;4948901;28;20031;-79
2023/04/27 16:36:02;;;;;;;5.38;4.60;;;;;;;13.28;32.36;101615.25;4942045;28;20027;-79
2023/04/27 16:38:28;;;;;;;6.00;4.90;;;;;;;12.97;33.13;101616.44;4950266;28;20038;-80
2023/04/27 16:40:55;;;;;;;6.03;4.60;;;;;;;13.25;32.49;101619.19;4952102;28;20402;-79
2023/04/27 16:43:20;;;;;;;9.02;5.00;;;;;;;12.87;32.78;101619.47;4948922;28;20027;-80
2023/04/27 16:45:46;;;;;;;7.15;4.80;;;;;;;12.94;32.50;101624.94;4950565;28;20101;-80
2023/04/27 16:48:11;;;;;;;5.95;4.45;;;;;;;12.77;32.50;101618.97;4950905;28;20027;-80
2023/04/27 16:50:40;;;;;;;7.25;5.05;;;;;;;12.60;33.18;101616.53;4947938;28;20031;-79
2023/04/27 16:53:10;;;;;;;8.70;4.72;;;;;;;12.53;33.58;101608.31;4949180;29;20034;-79
2023/04/27 16:55:35;;;;;;;5.80;4.88;;;;;;;12.53;33.42;101613.72;4946667;29;20182;-80
2023/04/27 16:58:02;;;;;;;6.47;4.80;;;;;;;12.62;33.51;101616.31;4947789;29;20462;-80
2023/04/27 17:00:32;;;;;;;6.00;4.72;;;;;;;12.45;33.75;101605.75;4943060;28;20452;-78
2023/04/27 17:02:57;;;;;;;6.07;4.80;;;;;;;12.55;34.28;101598.16;4948625;29;20027;-79
2023/04/27 17:05:23;;;;;;;7.60;5.35;;;;;;;12.40;34.14;101594.69;4953478;28;20082;-79
2023/04/27 17:07:49;;;;;;;6.88;4.93;;;;;;;12.35;34.35;101597.97;4952632;28;20420;-79
2023/04/27 17:10:15;;;;;;;6.40;5.15;;;;;;;12.05;35.25;101589.06;4951656;28;20035;-78
2023/04/27 17:12:41;;;;;;;7.72;4.80;;;;;;;12.18;35.13;101583.00;4950264;29;20058;-79
2023/04/27 17:15:07;;;;;;;7.68;5.15;;;;;;;11.99;35.22;101574.47;4953831;28;20023;-79
2023/04/27 17:17:32;;;;;;;8.20;5.00;;;;;;;12.01;35.36;101566.19;4951274;28;20055;-78
2023/04/27 17:19:58;;;;;;;6.43;4.80;;;;;;;12.08;36.06;101570.66;4951338;29;20102;-78
2023/04/27 17:22:27;;;;;;;8.23;5.13;;;;;;;12.08;36.08;101562.56;4946049;28;20117;-78
2023/04/27 17:24:52;;;;;;;6.97;4.82;;;;;;;11.92;35.93;101566.28;4966200;28;20087;-79
2023/04/27 17:27:18;;;;;;;6.68;4.80;;;;;;;11.89;36.14;101558.56;4965116;28;20069;-79
2023/04/27 17:29:43;;;;;;;7.82;5.00;;;;;;;11.57;36.60;101546.28;4947587;29;20402;-79
2023/04/27 17:32:09;;;;;;;6.78;5.00;;;;;;;11.44;36.56;101544.28;4951530;28;20047;-80
2023/04/27 17:34:34;;;;;;;5.72;4.43;;;;;;;11.30;36.89;101540.53;4953911;28;20101;-80
2023/04/27 17:37:00;;;;;;;6.32;4.72;;;;;;;11.37;36.71;101533.41;4944239;28;20803;-79
2023/04/27 17:39:25;;;;;;;8.80;4.78;;;;;;;11.27;37.68;101536.38;4951063;28;20121;-79
2023/04/27 17:41:51;;;;;;;5.68;4.57;;;;;;;11.37;36.58;101534.22;4946112;28;20043;-78
2023/04/27 17:44:16;;;;;;;6.72;4.72;;;;;;;11.31;36.94;101540.34;4948838;29;20097;-78
2023/04/27 17:46:45;;;;;;;6.32;4.70;;;;;;;11.44;36.80;101544.28;4951954;28;20027;-78
2023/04/27 17:49:12;;;;;;;7.72;4.82;;;;;;;11.30;36.67;101537.84;4946809;28;20035;-79
2023/04/27 17:51:37;;;;;;;5.30;4.30;;;;;;;11.32;36.95;101525.84;4948114;29;20023;-79
2023/04/27 17:54:05;;;;;;;5.78;4.65;;;;;;;11.35;36.55;101530.88;4948864;28;20081;-79
2023/04/27 17:59:52;;;;;;;8.80;4.45;;;;;;;11.20;37.21;101522.78;4952097;29;20130;-79
2023/04/27 18:02:18;;;;;;;6.00;4.82;;;;;;;11.12;37.47;101527.44;4952652;29;20035;-80
2023/04/27 18:04:44;;;;;;;7.00;4.60;;;;;;;11.11;37.51;101523.88;4950081;28;20038;-79